sensor_id;sensor_type;location;lat;lon;timestamp;pressure;altitude;pressure_sealevel;temperature;humidity
11692;BME280;33659;42.672;23.354;2022-11-20T00:00:33;93647.09;;;15.66;71.90
11692;BME280;33659;42.672;23.354;2022-11-20T00:03:00;93673.00;;;15.75;71.27
11692;BME280;33659;42.672;23.354;2022-11-20T00:05:27;93685.06;;;15.79;71.37
11692;BME280;33659;42.672;23.354;2022-11-20T00:07:53;93684.69;;;15.81;71.83
11692;BME280;33659;42.672;23.354;2022-11-20T00:10:20;93669.63;;;15.74;72.18
11692;BME280;33659;42.672;23.354;2022-11-20T00:12:47;93690.63;;;15.45;74.73
11692;BME280;33659;42.672;23.354;2022-11-20T00:15:13;93684.59;;;15.27;75.92
11692;BME280;33659;42.672;23.354;2022-11-20T00:17:41;93670.28;;;15.17;76.84
11692;BME280;33659;42.672;23.354;2022-11-20T00:20:09;93683.06;;;15.15;76.80
11692;BME280;33659;42.672;23.354;2022-11-20T00:22:36;93679.31;;;15.24;75.99
11692;BME280;33659;42.672;23.354;2022-11-20T00:25:03;93667.34;;;15.40;71.51
11692;BME280;33659;42.672;23.354;2022-11-20T00:27:30;93648.91;;;15.55;71.09
11692;BME280;33659;42.672;23.354;2022-11-20T00:29:56;93661.34;;;15.76;72.49
11692;BME280;33659;42.672;23.354;2022-11-20T00:32:23;93652.31;;;15.69;73.39
11692;BME280;33659;42.672;23.354;2022-11-20T00:34:51;93654.97;;;15.73;73.77
11692;BME280;33659;42.672;23.354;2022-11-20T00:37:18;93662.13;;;15.73;73.05
11692;BME280;33659;42.672;23.354;2022-11-20T00:39:44;93650.81;;;15.76;72.51
11692;BME280;33659;42.672;23.354;2022-11-20T00:42:11;93635.41;;;15.92;69.07
11692;BME280;33659;42.672;23.354;2022-11-20T00:44:38;93649.31;;;15.92;70.88
11692;BME280;33659;42.672;23.354;2022-11-20T00:47:04;93654.59;;;15.92;68.25
11692;BME280;33659;42.672;23.354;2022-11-20T00:49:31;93658.31;;;16.06;67.55
11692;BME280;33659;42.672;23.354;2022-11-20T00:51:59;93655.66;;;16.23;67.30
11692;BME280;33659;42.672;23.354;2022-11-20T00:54:26;93695.16;;;16.31;66.10
11692;BME280;33659;42.672;23.354;2022-11-20T00:56:53;93663.16;;;16.36;66.04
11692;BME280;33659;42.672;23.354;2022-11-20T00:59:19;93663.16;;;16.36;67.14
11692;BME280;33659;42.672;23.354;2022-11-20T01:01:46;93648.44;;;16.45;63.20
11692;BME280;33659;42.672;23.354;2022-11-20T01:04:13;93649.84;;;16.78;61.62
11692;BME280;33659;42.672;23.354;2022-11-20T01:06:40;93664.91;;;16.89;62.22
11692;BME280;33659;42.672;23.354;2022-11-20T01:09:10;93654.97;;;17.14;59.83
11692;BME280;33659;42.672;23.354;2022-11-20T01:11:38;93646.63;;;17.23;59.96
11692;BME280;33659;42.672;23.354;2022-11-20T01:14:07;93652.19;;;17.39;58.99
11692;BME280;33659;42.672;23.354;2022-11-20T01:16:37;93629.00;;;17.65;56.99
11692;BME280;33659;42.672;23.354;2022-11-20T01:19:06;93631.19;;;17.73;56.95
11692;BME280;33659;42.672;23.354;2022-11-20T01:21:35;93648.47;;;17.81;57.17
11692;BME280;33659;42.672;23.354;2022-11-20T01:24:02;93615.56;;;17.93;56.57
11692;BME280;33659;42.672;23.354;2022-11-20T01:26:32;93607.53;;;18.04;56.20
11692;BME280;33659;42.672;23.354;2022-11-20T01:29:00;93610.13;;;18.07;55.21
11692;BME280;33659;42.672;23.354;2022-11-20T01:31:29;93643.72;;;18.07;56.93
11692;BME280;33659;42.672;23.354;2022-11-20T01:33:58;93636.28;;;17.95;56.30
11692;BME280;33659;42.672;23.354;2022-11-20T01:36:27;93643.06;;;17.96;56.91
11692;BME280;33659;42.672;23.354;2022-11-20T01:38:55;93602.38;;;17.90;57.21
11692;BME280;33659;42.672;23.354;2022-11-20T01:41:23;93625.41;;;17.89;58.23
11692;BME280;33659;42.672;23.354;2022-11-20T01:44:12;93613.81;;;17.76;59.22
11692;BME280;33659;42.672;23.354;2022-11-20T01:46:42;93627.09;;;17.65;59.70
11692;BME280;33659;42.672;23.354;2022-11-20T01:49:17;93621.16;;;17.54;60.01
11692;BME280;33659;42.672;23.354;2022-11-20T01:51:50;93589.41;;;17.61;58.02
11692;BME280;33659;42.672;23.354;2022-11-20T01:54:23;93619.00;;;17.86;56.58
11692;BME280;33659;42.672;23.354;2022-11-20T01:56:53;93605.47;;;17.84;56.34
11692;BME280;33659;42.672;23.354;2022-11-20T01:59:23;93604.72;;;17.84;56.37
11692;BME280;33659;42.672;23.354;2022-11-20T02:01:52;93609.94;;;17.88;56.14
11692;BME280;33659;42.672;23.354;2022-11-20T02:04:20;93603.91;;;17.87;57.98
11692;BME280;33659;42.672;23.354;2022-11-20T02:06:48;93613.06;;;17.75;58.69
11692;BME280;33659;42.672;23.354;2022-11-20T02:09:16;93598.81;;;17.62;58.36
11692;BME280;33659;42.672;23.354;2022-11-20T02:11:43;93616.91;;;17.64;58.31
11692;BME280;33659;42.672;23.354;2022-11-20T02:14:10;93615.00;;;17.64;58.88
11692;BME280;33659;42.672;23.354;2022-11-20T02:16:39;93623.06;;;17.50;59.69
11692;BME280;33659;42.672;23.354;2022-11-20T02:19:13;93629.13;;;17.43;59.89
11692;BME280;33659;42.672;23.354;2022-11-20T02:21:47;93631.47;;;17.34;58.91
11692;BME280;33659;42.672;23.354;2022-11-20T02:24:18;93623.09;;;17.43;59.23
11692;BME280;33659;42.672;23.354;2022-11-20T02:26:50;93619.38;;;17.37;59.73
11692;BME280;33659;42.672;23.354;2022-11-20T02:29:23;93614.84;;;17.41;59.33
11692;BME280;33659;42.672;23.354;2022-11-20T02:31:50;93610.22;;;17.52;57.43
11692;BME280;33659;42.672;23.354;2022-11-20T02:34:17;93629.75;;;17.65;56.89
11692;BME280;33659;42.672;23.354;2022-11-20T02:36:44;93615.69;;;17.79;56.05
11692;BME280;33659;42.672;23.354;2022-11-20T02:39:13;93622.00;;;17.89;56.19
11692;BME280;33659;42.672;23.354;2022-11-20T02:41:43;93646.09;;;17.94;55.71
11692;BME280;33659;42.672;23.354;2022-11-20T02:44:10;93624.81;;;18.12;55.18
11692;BME280;33659;42.672;23.354;2022-11-20T02:46:37;93626.25;;;18.20;54.99
11692;BME280;33659;42.672;23.354;2022-11-20T02:49:04;93637.94;;;18.19;55.12
11692;BME280;33659;42.672;23.354;2022-11-20T02:51:32;93650.31;;;18.29;54.65
11692;BME280;33659;42.672;23.354;2022-11-20T02:53:58;93637.03;;;18.36;54.81
11692;BME280;33659;42.672;23.354;2022-11-20T02:56:25;93648.28;;;18.40;55.05
11692;BME280;33659;42.672;23.354;2022-11-20T02:58:53;93644.97;;;18.36;55.32
11692;BME280;33659;42.672;23.354;2022-11-20T03:01:20;93640.03;;;18.35;55.62
11692;BME280;33659;42.672;23.354;2022-11-20T03:03:47;93648.75;;;18.35;55.89
11692;BME280;33659;42.672;23.354;2022-11-20T03:06:15;93651.81;;;18.30;56.36
11692;BME280;33659;42.672;23.354;2022-11-20T03:08:41;93672.22;;;18.30;56.54
11692;BME280;33659;42.672;23.354;2022-11-20T03:11:08;93660.25;;;18.18;56.62
11692;BME280;33659;42.672;23.354;2022-11-20T03:13:35;93653.00;;;18.26;56.76
11692;BME280;33659;42.672;23.354;2022-11-20T03:16:12;93666.59;;;18.24;57.00
11692;BME280;33659;42.672;23.354;2022-11-20T03:18:40;93677.19;;;18.24;56.77
11692;BME280;33659;42.672;23.354;2022-11-20T03:21:08;93670.00;;;18.25;56.49
11692;BME280;33659;42.672;23.354;2022-11-20T03:23:35;93689.59;;;18.27;56.45
11692;BME280;33659;42.672;23.354;2022-11-20T03:26:14;93692.63;;;18.29;56.60
11692;BME280;33659;42.672;23.354;2022-11-20T03:28:41;93702.84;;;18.24;56.44
11692;BME280;33659;42.672;23.354;2022-11-20T03:31:12;93695.69;;;18.24;56.70
11692;BME280;33659;42.672;23.354;2022-11-20T03:33:39;93683.66;;;18.16;56.66
11692;BME280;33659;42.672;23.354;2022-11-20T03:36:08;93692.66;;;18.22;56.74
11692;BME280;33659;42.672;23.354;2022-11-20T03:38:35;93686.63;;;18.22;56.81
11692;BME280;33659;42.672;23.354;2022-11-20T03:41:04;93694.19;;;18.23;56.77
11692;BME280;33659;42.672;23.354;2022-11-20T03:43:32;93688.09;;;18.26;56.46
11692;BME280;33659;42.672;23.354;2022-11-20T03:45:59;93700.97;;;18.24;56.71
11692;BME280;33659;42.672;23.354;2022-11-20T03:48:27;93710.78;;;18.24;56.63
11692;BME280;33659;42.672;23.354;2022-11-20T03:51:06;93704.75;;;18.23;56.56
11692;BME280;33659;42.672;23.354;2022-11-20T03:53:33;93696.44;;;18.21;56.43
11692;BME280;33659;42.672;23.354;2022-11-20T03:56:00;93707.00;;;18.21;56.60
11692;BME280;33659;42.672;23.354;2022-11-20T03:58:27;93690.47;;;18.17;56.66
11692;BME280;33659;42.672;23.354;2022-11-20T04:00:53;93688.94;;;18.16;56.94
11692;BME280;33659;42.672;23.354;2022-11-20T04:03:20;93679.50;;;18.19;56.84
11692;BME280;33659;42.672;23.354;2022-11-20T04:05:48;93688.50;;;18.21;56.80
11692;BME280;33659;42.672;23.354;2022-11-20T04:08:15;93686.63;;;18.22;56.46
11692;BME280;33659;42.672;23.354;2022-11-20T04:10:41;93694.53;;;18.25;56.46
11692;BME280;33659;42.672;23.354;2022-11-20T04:13:08;93697.59;;;18.20;56.82
11692;BME280;33659;42.672;23.354;2022-11-20T04:15:34;93688.16;;;18.19;56.57
11692;BME280;33659;42.672;23.354;2022-11-20T04:18:02;93714.25;;;18.17;55.78
11692;BME280;33659;42.672;23.354;2022-11-20T04:20:28;93695.00;;;18.17;56.09
11692;BME280;33659;42.672;23.354;2022-11-20T04:22:56;93709.38;;;18.12;56.07
11692;BME280;33659;42.672;23.354;2022-11-20T04:25:23;93685.25;;;18.10;56.43
11692;BME280;33659;42.672;23.354;2022-11-20T04:27:50;93711.28;;;18.08;56.17
11692;BME280;33659;42.672;23.354;2022-11-20T04:30:16;93692.38;;;18.09;56.30
11692;BME280;33659;42.672;23.354;2022-11-20T04:32:43;93708.69;;;18.04;56.64
11692;BME280;33659;42.672;23.354;2022-11-20T04:35:09;93714.00;;;18.01;56.95
11692;BME280;33659;42.672;23.354;2022-11-20T04:37:36;93714.00;;;18.01;57.03
11692;BME280;33659;42.672;23.354;2022-11-20T04:40:05;93723.81;;;17.97;57.53
11692;BME280;33659;42.672;23.354;2022-11-20T04:42:32;93720.06;;;17.98;57.78
11692;BME280;33659;42.672;23.354;2022-11-20T04:44:59;93711.75;;;17.96;57.80
11692;BME280;33659;42.672;23.354;2022-11-20T04:47:25;93701.97;;;17.93;57.98
11692;BME280;33659;42.672;23.354;2022-11-20T04:49:52;93687.28;;;17.92;57.97
11692;BME280;33659;42.672;23.354;2022-11-20T04:52:18;93698.19;;;17.94;57.89
11692;BME280;33659;42.672;23.354;2022-11-20T04:54:45;93689.16;;;17.91;57.84
11692;BME280;33659;42.672;23.354;2022-11-20T04:57:14;93692.91;;;17.97;57.29
11692;BME280;33659;42.672;23.354;2022-11-20T04:59:41;93685.34;;;17.96;57.53
11692;BME280;33659;42.672;23.354;2022-11-20T05:02:08;93683.06;;;17.98;56.87
11692;BME280;33659;42.672;23.354;2022-11-20T05:04:35;93681.19;;;17.95;57.68
11692;BME280;33659;42.672;23.354;2022-11-20T05:07:02;93671.44;;;17.88;57.39
11692;BME280;33659;42.672;23.354;2022-11-20T05:09:30;93678.22;;;17.89;57.36
11692;BME280;33659;42.672;23.354;2022-11-20T05:11:56;93691.50;;;17.82;57.83
11692;BME280;33659;42.672;23.354;2022-11-20T05:14:24;93673.75;;;17.82;57.76
11692;BME280;33659;42.672;23.354;2022-11-20T05:16:51;93650.03;;;17.79;58.45
11692;BME280;33659;42.672;23.354;2022-11-20T05:19:18;93660.97;;;17.77;58.77
11692;BME280;33659;42.672;23.354;2022-11-20T05:21:44;93671.97;;;17.72;59.06
11692;BME280;33659;42.672;23.354;2022-11-20T05:24:11;93650.81;;;17.69;59.27
11692;BME280;33659;42.672;23.354;2022-11-20T05:26:38;93638.75;;;17.68;59.72
11692;BME280;33659;42.672;23.354;2022-11-20T05:29:04;93638.44;;;17.62;60.08
11692;BME280;33659;42.672;23.354;2022-11-20T05:31:32;93645.25;;;17.59;61.42
11692;BME280;33659;42.672;23.354;2022-11-20T05:33:59;93635.50;;;17.49;62.66
11692;BME280;33659;42.672;23.354;2022-11-20T05:36:26;93647.25;;;17.38;64.33
11692;BME280;33659;42.672;23.354;2022-11-20T05:38:52;93668.44;;;17.30;64.73
11692;BME280;33659;42.672;23.354;2022-11-20T05:41:20;93666.94;;;17.29;65.62
11692;BME280;33659;42.672;23.354;2022-11-20T05:43:48;93668.88;;;17.22;65.98
11692;BME280;33659;42.672;23.354;2022-11-20T05:46:17;93656.38;;;17.26;66.16
11692;BME280;33659;42.672;23.354;2022-11-20T05:48:46;93640.59;;;17.22;66.35
11692;BME280;33659;42.672;23.354;2022-11-20T05:51:15;93662.44;;;17.19;66.74
11692;BME280;33659;42.672;23.354;2022-11-20T05:53:42;93658.31;;;17.22;66.77
11692;BME280;33659;42.672;23.354;2022-11-20T05:56:10;93648.13;;;17.24;66.61
11692;BME280;33659;42.672;23.354;2022-11-20T05:58:38;93656.03;;;17.27;66.25
11692;BME280;33659;42.672;23.354;2022-11-20T06:01:07;93655.31;;;17.20;66.27
11692;BME280;33659;42.672;23.354;2022-11-20T06:03:34;93665.06;;;17.26;66.00
11692;BME280;33659;42.672;23.354;2022-11-20T06:06:03;93659.41;;;17.24;65.58
11692;BME280;33659;42.672;23.354;2022-11-20T06:08:31;93654.19;;;17.21;65.26
11692;BME280;33659;42.672;23.354;2022-11-20T06:10:58;93657.56;;;17.21;65.14
11692;BME280;33659;42.672;23.354;2022-11-20T06:13:24;93670.72;;;17.28;64.88
11692;BME280;33659;42.672;23.354;2022-11-20T06:15:52;93678.97;;;17.30;64.76
11692;BME280;33659;42.672;23.354;2022-11-20T06:18:19;93672.22;;;17.29;64.94
11692;BME280;33659;42.672;23.354;2022-11-20T06:20:47;93630.16;;;17.01;64.93
11692;BME280;33659;42.672;23.354;2022-11-20T06:23:15;93669.56;;;17.29;65.19
11692;BME280;33659;42.672;23.354;2022-11-20T06:25:42;93680.13;;;17.29;65.26
11692;BME280;33659;42.672;23.354;2022-11-20T06:28:09;93693.66;;;17.35;65.24
11692;BME280;33659;42.672;23.354;2022-11-20T06:30:36;93697.78;;;17.40;65.27
11692;BME280;33659;42.672;23.354;2022-11-20T06:33:02;93697.38;;;17.45;64.87
11692;BME280;33659;42.672;23.354;2022-11-20T06:35:29;93690.94;;;17.49;64.52
11692;BME280;33659;42.672;23.354;2022-11-20T06:37:56;93670.16;;;17.55;64.13
11692;BME280;33659;42.672;23.354;2022-11-20T06:40:24;93677.28;;;17.58;63.53
11692;BME280;33659;42.672;23.354;2022-11-20T06:42:52;93680.38;;;17.53;63.53
11692;BME280;33659;42.672;23.354;2022-11-20T06:45:19;93686.06;;;17.48;63.61
11692;BME280;33659;42.672;23.354;2022-11-20T06:47:46;93695.81;;;17.51;63.29
11692;BME280;33659;42.672;23.354;2022-11-20T06:50:13;93676.94;;;17.56;63.06
11692;BME280;33659;42.672;23.354;2022-11-20T06:52:39;93684.84;;;17.59;63.40
11692;BME280;33659;42.672;23.354;2022-11-20T06:55:07;93702.53;;;17.63;63.15
11692;BME280;33659;42.672;23.354;2022-11-20T06:57:35;93705.88;;;17.70;62.93
11692;BME280;33659;42.672;23.354;2022-11-20T07:00:02;93674.31;;;17.56;62.92
11692;BME280;33659;42.672;23.354;2022-11-20T07:02:29;93699.50;;;17.71;62.94
11692;BME280;33659;42.672;23.354;2022-11-20T07:04:56;93721.34;;;17.75;62.93
11692;BME280;33659;42.672;23.354;2022-11-20T07:07:22;93703.94;;;17.81;62.55
11692;BME280;33659;42.672;23.354;2022-11-20T07:09:49;93712.59;;;17.85;62.35
11692;BME280;33659;42.672;23.354;2022-11-20T07:12:16;93715.66;;;17.80;62.15
11692;BME280;33659;42.672;23.354;2022-11-20T07:14:44;93714.16;;;17.79;62.08
11692;BME280;33659;42.672;23.354;2022-11-20T07:17:11;93710.75;;;17.79;61.92
11692;BME280;33659;42.672;23.354;2022-11-20T07:19:38;93702.81;;;17.82;61.52
11692;BME280;33659;42.672;23.354;2022-11-20T07:22:04;93725.41;;;17.87;61.15
11692;BME280;33659;42.672;23.354;2022-11-20T07:24:31;93727.66;;;17.89;60.95
11692;BME280;33659;42.672;23.354;2022-11-20T07:26:57;93725.75;;;17.93;60.82
11692;BME280;33659;42.672;23.354;2022-11-20T07:29:24;93725.00;;;17.92;60.84
11692;BME280;33659;42.672;23.354;2022-11-20T07:31:52;93724.59;;;17.97;60.65
11692;BME280;33659;42.672;23.354;2022-11-20T07:34:20;93730.63;;;17.98;60.57
11692;BME280;33659;42.672;23.354;2022-11-20T07:36:47;93708.75;;;17.94;60.42
11692;BME280;33659;42.672;23.354;2022-11-20T07:39:14;93710.66;;;17.90;60.79
11692;BME280;33659;42.672;23.354;2022-11-20T07:41:40;93717.88;;;17.85;60.49
11692;BME280;33659;42.672;23.354;2022-11-20T07:44:07;93719.38;;;17.86;60.51
11692;BME280;33659;42.672;23.354;2022-11-20T07:46:34;93729.91;;;17.90;60.47
11692;BME280;33659;42.672;23.354;2022-11-20T07:49:02;93719.34;;;17.90;60.49
11692;BME280;33659;42.672;23.354;2022-11-20T07:51:28;93720.81;;;17.98;60.00
11692;BME280;33659;42.672;23.354;2022-11-20T07:53:55;93725.31;;;18.01;59.84
11692;BME280;33659;42.672;23.354;2022-11-20T07:56:22;93728.34;;;18.00;59.79
11692;BME280;33659;42.672;23.354;2022-11-20T07:58:49;93720.44;;;17.96;59.64
11692;BME280;33659;42.672;23.354;2022-11-20T08:01:16;93723.88;;;17.93;59.72
11692;BME280;33659;42.672;23.354;2022-11-20T08:03:42;93717.13;;;17.85;59.93
11692;BME280;33659;42.672;23.354;2022-11-20T08:06:10;93717.13;;;17.85;60.41
11692;BME280;33659;42.672;23.354;2022-11-20T08:08:37;93723.16;;;17.85;60.52
11692;BME280;33659;42.672;23.354;2022-11-20T08:11:05;93720.13;;;17.91;60.51
11692;BME280;33659;42.672;23.354;2022-11-20T08:13:49;93715.13;;;18.00;60.26
11692;BME280;33659;42.672;23.354;2022-11-20T08:16:32;93714.38;;;17.99;60.27
11692;BME280;33659;42.672;23.354;2022-11-20T08:18:59;93697.75;;;18.02;59.71
11692;BME280;33659;42.672;23.354;2022-11-20T08:21:27;93702.66;;;18.04;59.81
11692;BME280;33659;42.672;23.354;2022-11-20T08:23:54;93713.25;;;17.97;60.01
11692;BME280;33659;42.672;23.354;2022-11-20T08:26:21;93714.00;;;18.01;59.97
11692;BME280;33659;42.672;23.354;2022-11-20T08:28:48;93716.97;;;18.03;59.95
11692;BME280;33659;42.672;23.354;2022-11-20T08:31:14;93728.69;;;18.05;59.92
11692;BME280;33659;42.672;23.354;2022-11-20T08:33:41;93728.22;;;18.14;59.51
11692;BME280;33659;42.672;23.354;2022-11-20T08:36:08;93738.78;;;18.14;59.12
11692;BME280;33659;42.672;23.354;2022-11-20T08:38:36;93734.63;;;18.17;59.12
11692;BME280;33659;42.672;23.354;2022-11-20T08:41:03;93728.16;;;18.21;59.08
11692;BME280;33659;42.672;23.354;2022-11-20T08:43:48;93728.09;;;18.28;58.64
11692;BME280;33659;42.672;23.354;2022-11-20T08:46:14;93745.41;;;18.36;58.20
11692;BME280;33659;42.672;23.354;2022-11-20T08:48:42;93751.47;;;18.33;58.38
11692;BME280;33659;42.672;23.354;2022-11-20T08:51:10;93766.63;;;18.26;58.65
11692;BME280;33659;42.672;23.354;2022-11-20T08:53:38;93781.69;;;18.32;58.74
11692;BME280;33659;42.672;23.354;2022-11-20T08:56:06;93774.09;;;18.34;58.90
11692;BME280;33659;42.672;23.354;2022-11-20T08:58:32;93768.06;;;18.37;58.51
11692;BME280;33659;42.672;23.354;2022-11-20T09:00:59;93761.22;;;18.44;58.59
11692;BME280;33659;42.672;23.354;2022-11-20T09:03:26;93768.34;;;18.47;58.47
11692;BME280;33659;42.672;23.354;2022-11-20T09:05:57;93770.22;;;18.50;58.84
11692;BME280;33659;42.672;23.354;2022-11-20T09:08:25;93771.72;;;18.51;58.95
11692;BME280;33659;42.672;23.354;2022-11-20T09:10:53;93773.63;;;18.47;59.26
11692;BME280;33659;42.672;23.354;2022-11-20T09:13:21;93763.25;;;18.25;59.97
11692;BME280;33659;42.672;23.354;2022-11-20T09:15:53;93772.44;;;18.10;61.21
11692;BME280;33659;42.672;23.354;2022-11-20T09:18:20;93784.56;;;18.04;62.51
11692;BME280;33659;42.672;23.354;2022-11-20T09:20:47;93770.25;;;17.98;62.94
11692;BME280;33659;42.672;23.354;2022-11-20T09:23:14;93780.38;;;18.03;62.87
11692;BME280;33659;42.672;23.354;2022-11-20T09:25:41;93795.53;;;17.95;61.16
11692;BME280;33659;42.672;23.354;2022-11-20T09:28:09;93795.63;;;17.84;62.66
11692;BME280;33659;42.672;23.354;2022-11-20T09:30:36;93771.56;;;17.65;63.05
11692;BME280;33659;42.672;23.354;2022-11-20T09:33:04;93771.59;;;17.57;64.22
11692;BME280;33659;42.672;23.354;2022-11-20T09:35:31;93769.75;;;17.51;64.38
11692;BME280;33659;42.672;23.354;2022-11-20T09:37:58;93752.78;;;17.45;63.50
11692;BME280;33659;42.672;23.354;2022-11-20T09:40:26;93749.75;;;17.53;64.52
11692;BME280;33659;42.672;23.354;2022-11-20T09:42:57;93743.69;;;17.56;64.81
11692;BME280;33659;42.672;23.354;2022-11-20T09:45:38;93735.75;;;17.60;65.54
11692;BME280;33659;42.672;23.354;2022-11-20T09:48:20;93729.25;;;17.75;65.89
11692;BME280;33659;42.672;23.354;2022-11-20T09:50:55;93732.94;;;17.92;66.12
11692;BME280;33659;42.672;23.354;2022-11-20T09:53:32;93725.97;;;18.12;65.97
11692;BME280;33659;42.672;23.354;2022-11-20T09:56:02;93716.03;;;18.27;65.33
11692;BME280;33659;42.672;23.354;2022-11-20T09:58:35;93714.78;;;18.39;66.21
11692;BME280;33659;42.672;23.354;2022-11-20T10:01:12;93719.22;;;18.49;66.14
11692;BME280;33659;42.672;23.354;2022-11-20T10:03:45;93706.13;;;18.76;64.08
11692;BME280;33659;42.672;23.354;2022-11-20T10:06:18;93715.91;;;19.13;64.20
11692;BME280;33659;42.672;23.354;2022-11-20T10:09:01;93717.13;;;19.36;64.18
11692;BME280;33659;42.672;23.354;2022-11-20T10:11:37;93719.13;;;19.28;63.93
11692;BME280;33659;42.672;23.354;2022-11-20T10:14:16;93715.16;;;19.13;63.35
11692;BME280;33659;42.672;23.354;2022-11-20T10:16:52;93705.75;;;19.08;63.38
11692;BME280;33659;42.672;23.354;2022-11-20T10:19:34;93694.81;;;19.06;63.25
11692;BME280;33659;42.672;23.354;2022-11-20T10:22:10;93702.56;;;18.90;63.70
11692;BME280;33659;42.672;23.354;2022-11-20T10:24:45;93687.69;;;18.69;64.54
11692;BME280;33659;42.672;23.354;2022-11-20T10:27:36;93697.03;;;18.39;65.46
11692;BME280;33659;42.672;23.354;2022-11-20T10:30:09;93704.38;;;18.21;65.83
11692;BME280;33659;42.672;23.354;2022-11-20T10:32:39;93691.16;;;18.21;65.53
11692;BME280;33659;42.672;23.354;2022-11-20T10:35:16;93689.34;;;18.14;65.19
11692;BME280;33659;42.672;23.354;2022-11-20T10:37:48;93695.28;;;18.22;65.27
11692;BME280;33659;42.672;23.354;2022-11-20T10:40:22;93696.28;;;18.39;64.95
11692;BME280;33659;42.672;23.354;2022-11-20T10:42:53;93712.81;;;18.47;65.05
11692;BME280;33659;42.672;23.354;2022-11-20T10:45:35;93709.09;;;18.44;65.71
11692;BME280;33659;42.672;23.354;2022-11-20T10:48:12;93712.19;;;18.35;66.27
11692;BME280;33659;42.672;23.354;2022-11-20T10:50:46;93708.63;;;18.11;66.13
11692;BME280;33659;42.672;23.354;2022-11-20T10:53:22;93697.72;;;18.06;66.60
11692;BME280;33659;42.672;23.354;2022-11-20T10:56:00;93701.91;;;18.00;67.93
11692;BME280;33659;42.672;23.354;2022-11-20T10:58:37;93707.66;;;17.88;69.21
11692;BME280;33659;42.672;23.354;2022-11-20T11:01:14;93717.19;;;17.74;70.26
11692;BME280;33659;42.672;23.354;2022-11-20T11:03:43;93718.03;;;17.57;71.33
11692;BME280;33659;42.672;23.354;2022-11-20T11:06:17;93709.81;;;17.48;71.86
11692;BME280;33659;42.672;23.354;2022-11-20T11:08:49;93745.97;;;17.54;72.31
11692;BME280;33659;42.672;23.354;2022-11-20T11:11:21;93739.28;;;17.39;73.60
11692;BME280;33659;42.672;23.354;2022-11-20T11:13:49;93758.28;;;17.02;76.04
11692;BME280;33659;42.672;23.354;2022-11-20T11:16:20;93805.06;;;16.51;76.97
11692;BME280;33659;42.672;23.354;2022-11-20T11:18:49;93773.44;;;16.09;71.43
11692;BME280;33659;42.672;23.354;2022-11-20T11:21:22;93795.97;;;15.78;65.05
11692;BME280;33659;42.672;23.354;2022-11-20T11:23:58;93781.63;;;15.57;66.04
11692;BME280;33659;42.672;23.354;2022-11-20T11:26:26;93781.97;;;15.49;68.51
11692;BME280;33659;42.672;23.354;2022-11-20T11:28:55;93779.28;;;15.31;70.47
11692;BME280;33659;42.672;23.354;2022-11-20T11:31:23;93749.13;;;15.00;68.89
11692;BME280;33659;42.672;23.354;2022-11-20T11:33:51;93761.44;;;14.81;71.16
11692;BME280;33659;42.672;23.354;2022-11-20T11:36:20;93752.69;;;14.59;70.98
11692;BME280;33659;42.672;23.354;2022-11-20T11:38:51;93755.53;;;14.40;71.87
11692;BME280;33659;42.672;23.354;2022-11-20T11:41:20;93756.28;;;14.37;72.95
11692;BME280;33659;42.672;23.354;2022-11-20T11:43:52;93745.75;;;14.30;71.91
11692;BME280;33659;42.672;23.354;2022-11-20T11:46:49;93743.03;;;14.23;72.22
11692;BME280;33659;42.672;23.354;2022-11-20T11:49:20;93743.41;;;14.18;71.84
11692;BME280;33659;42.672;23.354;2022-11-20T11:51:59;93701.38;;;14.21;72.17
11692;BME280;33659;42.672;23.354;2022-11-20T11:54:31;93718.69;;;14.29;71.81
11692;BME280;33659;42.672;23.354;2022-11-20T11:57:03;93740.53;;;14.37;71.94
11692;BME280;33659;42.672;23.354;2022-11-20T11:59:44;93733.81;;;14.43;71.45
11692;BME280;33659;42.672;23.354;2022-11-20T12:02:24;93727.88;;;14.53;70.42
11692;BME280;33659;42.672;23.354;2022-11-20T12:04:58;93730.50;;;14.53;70.68
11692;BME280;33659;42.672;23.354;2022-11-20T12:07:35;93718.19;;;14.68;68.82
11692;BME280;33659;42.672;23.354;2022-11-20T12:10:12;93733.63;;;14.80;68.04
11692;BME280;33659;42.672;23.354;2022-11-20T12:12:44;93731.09;;;14.95;68.36
11692;BME280;33659;42.672;23.354;2022-11-20T12:15:16;93728.06;;;14.93;68.57
11692;BME280;33659;42.672;23.354;2022-11-20T12:17:46;93705.13;;;14.86;67.73
11692;BME280;33659;42.672;23.354;2022-11-20T12:20:16;93735.50;;;14.76;70.01
11692;BME280;33659;42.672;23.354;2022-11-20T12:22:48;93676.88;;;14.58;68.32
11692;BME280;33659;42.672;23.354;2022-11-20T12:25:21;93707.19;;;14.48;68.98
11692;BME280;33659;42.672;23.354;2022-11-20T12:28:16;93701.88;;;14.38;69.63
11692;BME280;33659;42.672;23.354;2022-11-20T12:30:55;93730.66;;;14.20;71.12
11692;BME280;33659;42.672;23.354;2022-11-20T12:33:47;93750.09;;;14.12;71.11
11692;BME280;33659;42.672;23.354;2022-11-20T12:36:28;93753.50;;;14.16;71.58
11692;BME280;33659;42.672;23.354;2022-11-20T12:39:19;93741.16;;;14.20;71.89
11692;BME280;33659;42.672;23.354;2022-11-20T12:42:08;93683.75;;;14.22;70.65
11692;BME280;33659;42.672;23.354;2022-11-20T12:45:25;93646.69;;;14.30;69.85
11692;BME280;33659;42.672;23.354;2022-11-20T12:48:15;93631.72;;;14.38;71.12
11692;BME280;33659;42.672;23.354;2022-11-20T12:50:51;93650.94;;;14.53;69.69
11692;BME280;33659;42.672;23.354;2022-11-20T12:53:28;93655.91;;;14.69;69.26
11692;BME280;33659;42.672;23.354;2022-11-20T12:56:05;93660.06;;;14.84;70.30
11692;BME280;33659;42.672;23.354;2022-11-20T12:58:41;93664.25;;;14.96;71.29
11692;BME280;33659;42.672;23.354;2022-11-20T13:01:20;93662.38;;;15.03;70.51
11692;BME280;33659;42.672;23.354;2022-11-20T13:04:10;93654.13;;;15.08;73.14